| time (UTC) | temp F | wind direction | speed MPH | gust MPH | rain 1hr in | rain 24hr in | rain mn in | humidity % | barometer mb |
| 20260508004824 | 73 | 260 | 2.0 | 7.0 | 0.00 | 0.00 | 0.00 | 65 | 1014.0 |
| 20260508004224 | 73 | 258 | 2.0 | 7.0 | 0.00 | 0.00 | 0.00 | 63 | 1014.0 |
| 20260508003603 | 73 | 260 | 1.0 | 5.0 | 0.00 | 0.00 | 0.00 | 62 | 1014.2 |
| 20260508003003 | 73 | 251 | 1.0 | 5.0 | 0.00 | 0.00 | 0.00 | 63 | 1014.1 |
| 20260508002403 | 72 | 280 | 2.0 | 7.0 | 0.00 | 0.00 | 0.00 | 63 | 1014.2 |
| 20260508001803 | 72 | 286 | 2.0 | 7.0 | 0.00 | 0.00 | 0.00 | 61 | 1014.1 |
| 20260508001203 | 73 | 268 | 2.0 | 8.0 | 0.00 | 0.00 | 0.00 | 61 | 1014.0 |
| 20260508000624 | 73 | 268 | 2.0 | 8.0 | 0.00 | 0.00 | 0.00 | 59 | 1014.1 |
| 20260508000003 | 73 | 285 | 2.0 | 7.0 | 0.00 | 0.00 | 0.00 | 62 | 1014.1 |
| 20260507235403 | 72 | 272 | 1.0 | 6.0 | 0.00 | 0.00 | 0.00 | 61 | 1014.0 |
| 20260507234803 | 72 | 245 | 4.0 | 12.0 | 0.00 | 0.00 | 0.00 | 60 | 1014.0 |
| 20260507234203 | 72 | 260 | 4.0 | 12.0 | 0.00 | 0.00 | 0.00 | 60 | 1014.1 |
| 20260507233603 | 72 | 296 | 2.0 | 6.0 | 0.00 | 0.00 | 0.00 | 62 | 1014.0 |
| 20260507233003 | 73 | 284 | 2.0 | 6.0 | 0.00 | 0.00 | 0.00 | 62 | 1014.1 |
| 20260507232403 | 73 | 270 | 1.0 | 4.0 | 0.00 | 0.00 | 0.00 | 63 | 1014.2 |
| 20260507231803 | 73 | 250 | 1.0 | 6.0 | 0.00 | 0.00 | 0.00 | 61 | 1014.2 |
| 20260507231203 | 73 | 250 | 1.0 | 7.0 | 0.00 | 0.00 | 0.00 | 62 | 1014.3 |
| 20260507230603 | 73 | 230 | 3.0 | 8.0 | 0.00 | 0.00 | 0.00 | 61 | 1014.4 |
| 20260507230003 | 73 | 239 | 3.0 | 8.0 | 0.00 | 0.00 | 0.00 | 62 | 1014.4 |
| 20260507225403 | 72 | 264 | 2.0 | 8.0 | 0.00 | 0.00 | 0.00 | 62 | 1014.5 |
| 20260507224803 | 72 | 257 | 3.0 | 8.0 | 0.00 | 0.00 | 0.00 | 64 | 1014.5 |
| 20260507224224 | 72 | 268 | 4.0 | 11.0 | 0.00 | 0.00 | 0.00 | 62 | 1014.5 |
| 20260507223603 | 72 | 268 | 4.0 | 11.0 | 0.00 | 0.00 | 0.00 | 64 | 1014.7 |
| 20260507223003 | 72 | 244 | 3.0 | 11.0 | 0.00 | 0.00 | 0.00 | 64 | 1014.8 |
| 20260507222403 | 72 | 231 | 4.0 | 11.0 | 0.00 | 0.00 | 0.00 | 65 | 1014.9 |
| 20260507221803 | 72 | 249 | 4.0 | 11.0 | 0.00 | 0.00 | 0.00 | 65 | 1014.9 |
| 20260507221203 | 72 | 253 | 3.0 | 8.0 | 0.00 | 0.00 | 0.00 | 65 | 1014.8 |
| 20260507220624 | 72 | 248 | 3.0 | 8.0 | 0.00 | 0.00 | 0.00 | 66 | 1014.9 |
| 20260507220024 | 72 | 254 | 4.0 | 8.0 | 0.00 | 0.00 | 0.00 | 66 | 1015.1 |
| 20260507215424 | 72 | 273 | 4.0 | 8.0 | 0.00 | 0.00 | 0.00 | 67 | 1015.1 |
| 20260507214803 | 72 | 256 | 3.0 | 8.0 | 0.00 | 0.00 | 0.00 | 65 | 1015.1 |
| 20260507214203 | 72 | 275 | 1.0 | 8.0 | 0.00 | 0.00 | 0.00 | 67 | 1015.3 |
| 20260507213603 | 72 | 289 | 2.0 | 11.0 | 0.00 | 0.00 | 0.00 | 66 | 1015.4 |
| 20260507213003 | 72 | 269 | 2.0 | 8.0 | 0.00 | 0.00 | 0.00 | 65 | 1015.4 |
| 20260507212403 | 72 | 257 | 2.0 | 8.0 | 0.00 | 0.00 | 0.00 | 68 | 1015.5 |
| 20260507211803 | 72 | 260 | 2.0 | 8.0 | 0.00 | 0.00 | 0.00 | 67 | 1015.5 |
| 20260507211224 | 72 | 247 | 2.0 | 6.0 | 0.00 | 0.00 | 0.00 | 66 | 1015.6 |
| 20260507210603 | 72 | 228 | 3.0 | 8.0 | 0.00 | 0.00 | 0.00 | 67 | 1015.6 |
| 20260507210003 | 72 | 212 | 2.0 | 8.0 | 0.00 | 0.00 | 0.00 | 68 | 1015.6 |
| 20260507205403 | 72 | 215 | 2.0 | 6.0 | 0.00 | 0.00 | 0.00 | 67 | 1015.7 |
| 20260507204803 | 71 | 216 | 1.0 | 6.0 | 0.00 | 0.00 | 0.00 | 65 | 1015.7 |
| 20260507204203 | 71 | 233 | 1.0 | 6.0 | 0.00 | 0.00 | 0.00 | 67 | 1015.8 |
| 20260507203603 | 71 | 241 | 2.0 | 6.0 | 0.00 | 0.00 | 0.00 | 66 | 1015.7 |
| 20260507203003 | 71 | 273 | 3.0 | 8.0 | 0.00 | 0.00 | 0.00 | 65 | 1015.8 |
| 20260507202403 | 71 | 257 | 3.0 | 8.0 | 0.00 | 0.00 | 0.00 | 65 | 1015.8 |
| 20260507201803 | 71 | 226 | 2.0 | 6.0 | 0.00 | 0.00 | 0.00 | 65 | 1015.9 |
| 20260507201203 | 71 | 228 | 2.0 | 6.0 | 0.00 | 0.00 | 0.00 | 64 | 1016.0 |
| 20260507200603 | 71 | 249 | 3.0 | 7.0 | 0.00 | 0.00 | 0.00 | 66 | 1016.0 |
| 20260507200003 | 71 | 251 | 2.0 | 7.0 | 0.00 | 0.00 | 0.00 | 66 | 1015.9 |
| 20260507195403 | 71 | 237 | 2.0 | 8.0 | 0.00 | 0.00 | 0.00 | 67 | 1016.1 |
| 20260507194803 | 71 | 216 | 2.0 | 7.0 | 0.00 | 0.00 | 0.00 | 67 | 1016.2 |
| 20260507194203 | 70 | 210 | 2.0 | 11.0 | 0.00 | 0.00 | 0.00 | 68 | 1016.2 |
| 20260507193603 | 70 | 213 | 3.0 | 11.0 | 0.00 | 0.00 | 0.00 | 68 | 1016.3 |
| 20260507193003 | 70 | 221 | 3.0 | 10.0 | 0.00 | 0.00 | 0.00 | 71 | 1016.4 |
| 20260507192403 | 70 | 219 | 2.0 | 10.0 | 0.00 | 0.00 | 0.00 | 73 | 1016.4 |
| 20260507191824 | 70 | 226 | 2.0 | 6.0 | 0.00 | 0.00 | 0.00 | 71 | 1016.3 |
| 20260507191203 | 70 | 229 | 3.0 | 11.0 | 0.00 | 0.00 | 0.00 | 71 | 1016.5 |
| 20260507190603 | 69 | 229 | 3.0 | 11.0 | 0.00 | 0.00 | 0.00 | 71 | 1016.4 |
| 20260507190004 | 69 | 228 | 2.0 | 6.0 | 0.00 | 0.00 | 0.00 | 71 | 1016.5 |
| 20260507185424 | 69 | 185 | 2.0 | 6.0 | 0.00 | 0.00 | 0.00 | 72 | 1016.5 |
| 20260507184803 | 69 | 161 | 2.0 | 7.0 | 0.00 | 0.00 | 0.00 | 71 | 1016.5 |
| 20260507184203 | 69 | 178 | 3.0 | 7.0 | 0.00 | 0.00 | 0.00 | 69 | 1016.5 |
| 20260507183603 | 69 | 215 | 3.0 | 10.0 | 0.00 | 0.00 | 0.00 | 69 | 1016.7 |
| 20260507183003 | 69 | 220 | 2.0 | 10.0 | 0.00 | 0.00 | 0.00 | 72 | 1016.8 |
| 20260507182403 | 68 | 195 | 2.0 | 7.0 | 0.00 | 0.00 | 0.00 | 74 | 1016.8 |
| 20260507181803 | 68 | 231 | 1.0 | 7.0 | 0.00 | 0.00 | 0.00 | 72 | 1016.8 |
| 20260507181203 | 68 | 213 | 2.0 | 6.0 | 0.00 | 0.00 | 0.00 | 71 | 1016.8 |
| 20260507180603 | 68 | 210 | 3.0 | 8.0 | 0.00 | 0.00 | 0.00 | 72 | 1016.8 |
| 20260507180003 | 68 | 176 | 2.0 | 8.0 | 0.00 | 0.00 | 0.00 | 74 | 1016.8 |
| 20260507175403 | 68 | 139 | 1.0 | 6.0 | 0.00 | 0.00 | 0.00 | 73 | 1016.7 |
| 20260507174803 | 67 | 188 | 2.0 | 6.0 | 0.00 | 0.00 | 0.00 | 73 | 1016.8 |
| 20260507174203 | 67 | 190 | 3.0 | 9.0 | 0.00 | 0.00 | 0.00 | 74 | 1016.8 |
| 20260507173603 | 66 | 206 | 2.0 | 9.0 | 0.00 | 0.00 | 0.00 | 75 | 1016.8 |
| 20260507173003 | 66 | 215 | 1.0 | 7.0 | 0.00 | 0.00 | 0.00 | 75 | 1016.8 |
| 20260507172403 | 66 | 216 | 0.0 | 5.0 | 0.00 | 0.00 | 0.00 | 77 | 1016.8 |
| 20260507171803 | 66 | 130 | 1.0 | 7.0 | 0.00 | 0.00 | 0.00 | 77 | 1016.9 |
| 20260507171203 | 66 | 133 | 2.0 | 7.0 | 0.00 | 0.00 | 0.00 | 76 | 1017.0 |
| 20260507170603 | 66 | 151 | 4.0 | 9.0 | 0.00 | 0.00 | 0.00 | 75 | 1017.0 |
| 20260507170024 | 65 | 154 | 5.0 | 10.0 | 0.00 | 0.00 | 0.00 | 76 | 1017.0 |
| 20260507165403 | 65 | 148 | 4.0 | 10.0 | 0.00 | 0.00 | 0.00 | 78 | 1017.0 |
| 20260507164803 | 65 | 139 | 3.0 | 8.0 | 0.00 | 0.00 | 0.00 | 77 | 1017.1 |
| 20260507164203 | 64 | 153 | 4.0 | 9.0 | 0.00 | 0.00 | 0.00 | 80 | 1017.1 |
| 20260507163603 | 64 | 145 | 3.0 | 9.0 | 0.00 | 0.00 | 0.00 | 79 | 1017.1 |
| 20260507163003 | 63 | 140 | 2.0 | 8.0 | 0.00 | 0.00 | 0.00 | 81 | 1017.0 |
| 20260507162424 | 62 | 173 | 2.0 | 7.0 | 0.00 | 0.00 | 0.00 | 82 | 1017.1 |
| 20260507161803 | 61 | 182 | 3.0 | 8.0 | 0.00 | 0.00 | 0.00 | 86 | 1017.1 |
| 20260507161224 | 61 | 174 | 2.0 | 8.0 | 0.00 | 0.00 | 0.00 | 88 | 1017.1 |
| 20260507160624 | 60 | 168 | 2.0 | 7.0 | 0.00 | 0.00 | 0.00 | 88 | 1017.2 |
| 20260507160003 | 59 | 154 | 1.0 | 7.0 | 0.00 | 0.00 | 0.00 | 88 | 1017.1 |
| 20260507155403 | 59 | 133 | 0.0 | 2.0 | 0.00 | 0.00 | 0.00 | 88 | 1017.1 |
| 20260507154824 | 59 | 138 | 1.0 | 6.0 | 0.00 | 0.00 | 0.00 | 88 | 1017.1 |
| 20260507154203 | 58 | 138 | 2.0 | 8.0 | 0.00 | 0.00 | 0.00 | 90 | 1017.2 |
| 20260507153624 | 57 | 132 | 2.0 | 8.0 | 0.00 | 0.00 | 0.00 | 91 | 1017.1 |
| 20260507153003 | 57 | 130 | 2.0 | 8.0 | 0.00 | 0.00 | 0.00 | 91 | 1017.2 |
| 20260507152403 | 56 | 124 | 2.0 | 7.0 | 0.00 | 0.00 | 0.00 | 92 | 1017.1 |
| 20260507151803 | 56 | 127 | 2.0 | 6.0 | 0.00 | 0.00 | 0.00 | 93 | 1017.1 |
| 20260507151203 | 55 | 126 | 2.0 | 6.0 | 0.00 | 0.00 | 0.00 | 93 | 1017.2 |
| 20260507150603 | 55 | 120 | 2.0 | 8.0 | 0.00 | 0.00 | 0.00 | 93 | 1017.3 |
| 20260507150024 | 54 | 119 | 2.0 | 8.0 | 0.00 | 0.00 | 0.00 | 93 | 1017.3 |
| 20260507145403 | 54 | 118 | 2.0 | 8.0 | 0.00 | 0.00 | 0.00 | 93 | 1017.3 |
| 20260507144803 | 54 | 123 | 2.0 | 8.0 | 0.00 | 0.00 | 0.00 | 93 | 1017.4 |
| 20260507144203 | 54 | 122 | 3.0 | 8.0 | 0.00 | 0.00 | 0.00 | 94 | 1017.3 |
| 20260507143624 | 53 | 117 | 3.0 | 8.0 | 0.00 | 0.00 | 0.00 | 94 | 1017.3 |
| 20260507143003 | 53 | 119 | 3.0 | 9.0 | 0.00 | 0.00 | 0.00 | 94 | 1017.2 |
| 20260507142403 | 53 | 126 | 3.0 | 11.0 | 0.00 | 0.00 | 0.00 | 94 | 1017.1 |
| 20260507141803 | 53 | 122 | 4.0 | 11.0 | 0.00 | 0.00 | 0.00 | 94 | 1017.1 |
| 20260507141203 | 52 | 123 | 4.0 | 11.0 | 0.00 | 0.00 | 0.00 | 95 | 1017.0 |
| 20260507140624 | 52 | 121 | 3.0 | 11.0 | 0.00 | 0.00 | 0.00 | 94 | 1017.0 |
| 20260507140003 | 52 | 117 | 2.0 | 8.0 | 0.00 | 0.00 | 0.00 | 95 | 1017.0 |
| 20260507135403 | 52 | 111 | 3.0 | 9.0 | 0.00 | 0.00 | 0.00 | 95 | 1016.9 |
| 20260507134824 | 52 | 108 | 3.0 | 9.0 | 0.00 | 0.00 | 0.00 | 95 | 1016.8 |
| 20260507134203 | 52 | 106 | 3.0 | 9.0 | 0.00 | 0.00 | 0.00 | 95 | 1016.9 |
| 20260507133603 | 52 | 106 | 3.0 | 8.0 | 0.00 | 0.00 | 0.00 | 95 | 1016.8 |
| 20260507133003 | 52 | 109 | 3.0 | 8.0 | 0.00 | 0.00 | 0.00 | 95 | 1016.8 |
| 20260507132403 | 52 | 115 | 4.0 | 8.0 | 0.00 | 0.00 | 0.00 | 95 | 1016.7 |
| 20260507131803 | 52 | 120 | 3.0 | 7.0 | 0.00 | 0.00 | 0.00 | 95 | 1016.8 |
| 20260507131203 | 52 | 124 | 3.0 | 7.0 | 0.00 | 0.00 | 0.00 | 95 | 1016.8 |
| 20260507130603 | 52 | 127 | 2.0 | 8.0 | 0.00 | 0.00 | 0.00 | 95 | 1016.8 |
| 20260507130003 | 53 | 123 | 1.0 | 8.0 | 0.00 | 0.00 | 0.00 | 95 | 1016.8 |
| 20260507125403 | 53 | 119 | 1.0 | 5.0 | 0.00 | 0.00 | 0.00 | 95 | 1016.7 |
| 20260507124803 | 53 | 119 | 1.0 | 5.0 | 0.00 | 0.00 | 0.00 | 95 | 1016.7 |
| 20260507124203 | 53 | 119 | 1.0 | 5.0 | 0.00 | 0.00 | 0.00 | 95 | 1016.7 |
| 20260507123603 | 53 | 119 | 1.0 | 4.0 | 0.00 | 0.00 | 0.00 | 95 | 1016.6 |
| 20260507123003 | 53 | 119 | 1.0 | 4.0 | 0.00 | 0.00 | 0.00 | 95 | 1016.6 |
| 20260507122403 | 52 | 119 | 0.0 | 4.0 | 0.00 | 0.00 | 0.00 | 95 | 1016.5 |
| 20260507121803 | 53 | 119 | 0.0 | 2.0 | 0.00 | 0.00 | 0.00 | 95 | 1016.6 |
| 20260507121203 | 52 | 119 | 0.0 | 4.0 | 0.00 | 0.00 | 0.00 | 95 | 1016.6 |
| 20260507120624 | 52 | 119 | 0.0 | 4.0 | 0.00 | 0.00 | 0.00 | 95 | 1016.7 |
| 20260507120004 | 53 | 119 | 0.0 | 4.0 | 0.00 | 0.00 | 0.00 | 95 | 1016.6 |
| 20260507115403 | 53 | 119 | 1.0 | 5.0 | 0.00 | 0.00 | 0.00 | 95 | 1016.5 |
| 20260507114803 | 53 | 119 | 1.0 | 5.0 | 0.00 | 0.00 | 0.00 | 94 | 1016.6 |
| 20260507114203 | 53 | 119 | 0.0 | 4.0 | 0.00 | 0.00 | 0.00 | 94 | 1016.5 |
| 20260507113603 | 53 | 119 | 0.0 | 4.0 | 0.00 | 0.00 | 0.00 | 94 | 1016.5 |
| 20260507113004 | 53 | 119 | 1.0 | 4.0 | 0.00 | 0.00 | 0.00 | 95 | 1016.5 |
| 20260507112403 | 53 | 119 | 1.0 | 5.0 | 0.00 | 0.00 | 0.00 | 95 | 1016.5 |
| 20260507111803 | 53 | 119 | 2.0 | 6.0 | 0.00 | 0.00 | 0.00 | 95 | 1016.5 |
| 20260507111203 | 53 | 119 | 2.0 | 6.0 | 0.00 | 0.00 | 0.00 | 95 | 1016.5 |
| 20260507110603 | 53 | 119 | 1.0 | 5.0 | 0.00 | 0.00 | 0.00 | 95 | 1016.5 |
| 20260507110003 | 54 | 119 | 0.0 | 2.0 | 0.00 | 0.00 | 0.00 | 95 | 1016.5 |
| 20260507105403 | 54 | 119 | 0.0 | 2.0 | 0.00 | 0.00 | 0.00 | 94 | 1016.5 |
| 20260507104803 | 54 | 119 | 0.0 | 2.0 | 0.00 | 0.00 | 0.00 | 94 | 1016.4 |
| 20260507104203 | 54 | 0 | 0.0 | 0.0 | 0.00 | 0.00 | 0.00 | 95 | 1016.5 |
| 20260507103603 | 54 | 0 | 0.0 | 0.0 | 0.00 | 0.00 | 0.00 | 95 | 1016.5 |
| 20260507103003 | 54 | 0 | 0.0 | 0.0 | 0.00 | 0.00 | 0.00 | 94 | 1016.5 |
| 20260507102403 | 54 | 0 | 0.0 | 0.0 | 0.00 | 0.00 | 0.00 | 94 | 1016.5 |
| 20260507101803 | 54 | 0 | 0.0 | 0.0 | 0.00 | 0.00 | 0.00 | 94 | 1016.6 |
| 20260507101203 | 54 | 0 | 0.0 | 0.0 | 0.00 | 0.00 | 0.00 | 94 | 1016.5 |
| 20260507100603 | 54 | 0 | 0.0 | 0.0 | 0.00 | 0.00 | 0.00 | 94 | 1016.5 |
| 20260507100003 | 54 | 0 | 0.0 | 0.0 | 0.00 | 0.00 | 0.00 | 94 | 1016.5 |
| 20260507095403 | 54 | 0 | 0.0 | 0.0 | 0.00 | 0.00 | 0.00 | 94 | 1016.4 |
| 20260507094803 | 54 | 119 | 0.0 | 2.0 | 0.00 | 0.00 | 0.00 | 94 | 1016.4 |
| 20260507094203 | 54 | 119 | 0.0 | 1.0 | 0.00 | 0.00 | 0.00 | 94 | 1016.5 |
| 20260507093603 | 54 | 119 | 0.0 | 2.0 | 0.00 | 0.00 | 0.00 | 94 | 1016.4 |
| 20260507093003 | 54 | 119 | 1.0 | 4.0 | 0.00 | 0.00 | 0.00 | 94 | 1016.4 |
| 20260507092403 | 54 | 119 | 1.0 | 4.0 | 0.00 | 0.00 | 0.00 | 94 | 1016.5 |
| 20260507091803 | 54 | 119 | 1.0 | 4.0 | 0.00 | 0.00 | 0.00 | 94 | 1016.6 |
| 20260507091203 | 54 | 119 | 1.0 | 4.0 | 0.00 | 0.00 | 0.00 | 94 | 1016.6 |
| 20260507090603 | 55 | 119 | 1.0 | 4.0 | 0.00 | 0.00 | 0.00 | 94 | 1016.6 |
| 20260507090003 | 55 | 119 | 1.0 | 5.0 | 0.00 | 0.00 | 0.00 | 94 | 1016.8 |
| 20260507085403 | 55 | 119 | 1.0 | 5.0 | 0.00 | 0.00 | 0.00 | 94 | 1016.7 |
| 20260507084803 | 55 | 119 | 1.0 | 5.0 | 0.00 | 0.00 | 0.00 | 94 | 1016.7 |
| 20260507084203 | 55 | 119 | 1.0 | 5.0 | 0.00 | 0.00 | 0.00 | 94 | 1016.8 |
| 20260507083603 | 55 | 119 | 2.0 | 6.0 | 0.00 | 0.00 | 0.00 | 94 | 1016.9 |
| 20260507083003 | 55 | 120 | 2.0 | 6.0 | 0.00 | 0.00 | 0.00 | 94 | 1016.9 |
| 20260507082403 | 55 | 120 | 1.0 | 6.0 | 0.00 | 0.00 | 0.00 | 94 | 1016.9 |
| 20260507081803 | 55 | 121 | 1.0 | 6.0 | 0.00 | 0.00 | 0.00 | 94 | 1017.0 |
| 20260507081203 | 55 | 121 | 1.0 | 5.0 | 0.00 | 0.00 | 0.00 | 94 | 1016.8 |
| 20260507080603 | 55 | 121 | 1.0 | 5.0 | 0.00 | 0.00 | 0.00 | 94 | 1017.0 |
| 20260507080003 | 55 | 121 | 0.0 | 2.0 | 0.00 | 0.00 | 0.00 | 94 | 1016.9 |
| 20260507075403 | 55 | 121 | 0.0 | 2.0 | 0.00 | 0.00 | 0.00 | 94 | 1016.9 |
| 20260507074803 | 56 | 121 | 1.0 | 5.0 | 0.00 | 0.00 | 0.00 | 94 | 1016.9 |
| 20260507074203 | 56 | 121 | 0.0 | 5.0 | 0.00 | 0.00 | 0.00 | 94 | 1016.8 |
| 20260507073603 | 56 | 121 | 0.0 | 4.0 | 0.00 | 0.00 | 0.00 | 94 | 1016.9 |
| 20260507073003 | 56 | 0 | 0.0 | 0.0 | 0.00 | 0.00 | 0.00 | 93 | 1017.0 |
| 20260507072403 | 56 | 0 | 0.0 | 0.0 | 0.00 | 0.00 | 0.00 | 93 | 1017.1 |
| 20260507071824 | 56 | 121 | 0.0 | 1.0 | 0.00 | 0.00 | 0.00 | 93 | 1017.1 |
| 20260507071203 | 56 | 121 | 0.0 | 1.0 | 0.00 | 0.00 | 0.00 | 93 | 1017.1 |
| 20260507070603 | 56 | 121 | 0.0 | 6.0 | 0.00 | 0.00 | 0.00 | 93 | 1017.2 |
| 20260507070005 | 56 | 122 | 1.0 | 6.0 | 0.00 | 0.00 | 0.00 | 93 | 1017.2 |
| 20260507065424 | 56 | 123 | 1.0 | 6.0 | 0.00 | 0.00 | 0.00 | 93 | 1017.1 |
| 20260507064824 | 56 | 124 | 1.0 | 5.0 | 0.00 | 0.00 | 0.00 | 93 | 1017.2 |
| 20260507064203 | 56 | 124 | 1.0 | 5.0 | 0.00 | 0.00 | 0.00 | 93 | 1017.1 |
| 20260507063603 | 56 | 124 | 1.0 | 4.0 | 0.00 | 0.00 | 0.00 | 93 | 1017.0 |
| 20260507063024 | 56 | 125 | 1.0 | 6.0 | 0.00 | 0.00 | 0.00 | 93 | 1017.0 |
| 20260507062403 | 56 | 126 | 2.0 | 6.0 | 0.00 | 0.00 | 0.00 | 93 | 1017.0 |
| 20260507061803 | 56 | 127 | 1.0 | 6.0 | 0.00 | 0.00 | 0.00 | 93 | 1017.1 |
| 20260507061203 | 56 | 127 | 1.0 | 5.0 | 0.00 | 0.00 | 0.00 | 93 | 1017.2 |
| 20260507060603 | 56 | 127 | 1.0 | 5.0 | 0.00 | 0.00 | 0.00 | 93 | 1017.0 |
| 20260507060003 | 56 | 127 | 1.0 | 5.0 | 0.00 | 0.00 | 0.00 | 93 | 1017.0 |
| 20260507055424 | 56 | 127 | 1.0 | 6.0 | 0.00 | 0.00 | 0.00 | 93 | 1017.1 |
| 20260507054803 | 56 | 128 | 1.0 | 6.0 | 0.00 | 0.00 | 0.00 | 93 | 1017.2 |
| 20260507054203 | 56 | 128 | 1.0 | 5.0 | 0.00 | 0.00 | 0.00 | 93 | 1017.2 |
| 20260507053603 | 56 | 128 | 2.0 | 5.0 | 0.00 | 0.00 | 0.00 | 93 | 1017.0 |
| 20260507053003 | 56 | 128 | 2.0 | 6.0 | 0.00 | 0.00 | 0.00 | 93 | 1017.0 |
| 20260507052403 | 56 | 134 | 2.0 | 6.0 | 0.00 | 0.00 | 0.00 | 93 | 1017.0 |
| 20260507051803 | 56 | 140 | 1.0 | 6.0 | 0.00 | 0.00 | 0.00 | 93 | 1017.0 |
| 20260507051203 | 56 | 146 | 1.0 | 5.0 | 0.00 | 0.00 | 0.00 | 93 | 1017.0 |
| 20260507050603 | 56 | 163 | 2.0 | 6.0 | 0.00 | 0.00 | 0.00 | 93 | 1017.0 |
| 20260507050003 | 56 | 197 | 1.0 | 4.0 | 0.00 | 0.00 | 0.00 | 92 | 1017.0 |
| 20260507045403 | 56 | 245 | 1.0 | 2.0 | 0.00 | 0.00 | 0.00 | 92 | 1017.0 |
| 20260507044803 | 56 | 254 | 1.0 | 2.0 | 0.00 | 0.00 | 0.00 | 92 | 1017.1 |
| 20260507044203 | 56 | 263 | 0.0 | 1.0 | 0.00 | 0.00 | 0.00 | 92 | 1017.0 |
| 20260507043603 | 56 | 263 | 0.0 | 1.0 | 0.00 | 0.00 | 0.00 | 92 | 1017.1 |
| 20260507043003 | 56 | 263 | 0.0 | 2.0 | 0.00 | 0.00 | 0.00 | 91 | 1017.0 |
| 20260507042403 | 56 | 263 | 0.0 | 2.0 | 0.00 | 0.00 | 0.00 | 91 | 1017.0 |
| 20260507041803 | 57 | 263 | 0.0 | 2.0 | 0.00 | 0.00 | 0.00 | 91 | 1016.9 |
| 20260507041203 | 57 | 263 | 0.0 | 2.0 | 0.00 | 0.00 | 0.00 | 91 | 1016.7 |
| 20260507040603 | 57 | 263 | 0.0 | 1.0 | 0.00 | 0.00 | 0.00 | 90 | 1016.8 |
| 20260507040003 | 57 | 263 | 0.0 | 1.0 | 0.00 | 0.00 | 0.00 | 90 | 1016.6 |
| 20260507035403 | 57 | 263 | 0.0 | 2.0 | 0.00 | 0.00 | 0.00 | 90 | 1016.7 |
| 20260507034803 | 58 | 263 | 0.0 | 2.0 | 0.00 | 0.00 | 0.00 | 90 | 1016.7 |
| 20260507034203 | 58 | 263 | 0.0 | 1.0 | 0.00 | 0.00 | 0.00 | 89 | 1016.7 |
| 20260507033603 | 58 | 263 | 0.0 | 2.0 | 0.00 | 0.00 | 0.00 | 89 | 1016.6 |
| 20260507033003 | 58 | 263 | 0.0 | 2.0 | 0.00 | 0.00 | 0.00 | 88 | 1016.6 |
| 20260507032403 | 59 | 263 | 0.0 | 2.0 | 0.00 | 0.00 | 0.00 | 88 | 1016.4 |
| 20260507031803 | 59 | 263 | 0.0 | 2.0 | 0.00 | 0.00 | 0.00 | 87 | 1016.4 |
| 20260507031203 | 60 | 263 | 0.0 | 2.0 | 0.00 | 0.00 | 0.00 | 87 | 1016.4 |
| 20260507030624 | 60 | 263 | 0.0 | 2.0 | 0.00 | 0.00 | 0.00 | 87 | 1016.4 |
| 20260507030003 | 60 | 263 | 0.0 | 1.0 | 0.00 | 0.00 | 0.00 | 86 | 1016.4 |
| 20260507025403 | 61 | 263 | 0.0 | 1.0 | 0.00 | 0.00 | 0.00 | 85 | 1016.3 |
| 20260507024803 | 61 | 263 | 0.0 | 2.0 | 0.00 | 0.00 | 0.00 | 84 | 1016.3 |
| 20260507024203 | 62 | 263 | 0.0 | 2.0 | 0.00 | 0.00 | 0.00 | 84 | 1016.3 |
| 20260507023603 | 62 | 263 | 0.0 | 2.0 | 0.00 | 0.00 | 0.00 | 83 | 1016.3 |
| 20260507023003 | 62 | 263 | 0.0 | 2.0 | 0.00 | 0.00 | 0.00 | 84 | 1016.3 |
| 20260507022403 | 62 | 263 | 0.0 | 2.0 | 0.00 | 0.00 | 0.00 | 83 | 1016.2 |
| 20260507021803 | 62 | 270 | 1.0 | 4.0 | 0.00 | 0.00 | 0.00 | 82 | 1016.2 |
| 20260507021203 | 63 | 279 | 1.0 | 4.0 | 0.00 | 0.00 | 0.00 | 82 | 1016.2 |
| 20260507020624 | 63 | 291 | 0.0 | 2.0 | 0.00 | 0.00 | 0.00 | 81 | 1016.1 |
| 20260507020003 | 63 | 289 | 1.0 | 4.0 | 0.00 | 0.00 | 0.00 | 82 | 1016.1 |
| 20260507015403 | 63 | 288 | 1.0 | 4.0 | 0.00 | 0.00 | 0.00 | 81 | 1016.2 |
| 20260507014803 | 63 | 284 | 0.0 | 4.0 | 0.00 | 0.00 | 0.00 | 80 | 1016.3 |
| 20260507014203 | 64 | 273 | 0.0 | 3.0 | 0.00 | 0.00 | 0.00 | 82 | 1016.2 |
| 20260507013603 | 64 | 287 | 0.0 | 4.0 | 0.00 | 0.00 | 0.00 | 80 | 1016.2 |
| 20260507013003 | 64 | 297 | 1.0 | 4.0 | 0.00 | 0.00 | 0.00 | 79 | 1016.2 |
| 20260507012403 | 64 | 321 | 1.0 | 6.0 | 0.00 | 0.00 | 0.00 | 79 | 1016.2 |
| 20260507011803 | 64 | 307 | 1.0 | 6.0 | 0.00 | 0.00 | 0.00 | 78 | 1016.2 |
| 20260507011203 | 64 | 288 | 1.0 | 5.0 | 0.00 | 0.00 | 0.00 | 78 | 1016.4 |
| 20260507010603 | 64 | 277 | 0.0 | 4.0 | 0.00 | 0.00 | 0.00 | 78 | 1016.3 |
| 20260507010024 | 64 | 267 | 1.0 | 5.0 | 0.00 | 0.00 | 0.00 | 78 | 1016.3 |
| 20260507005403 | 64 | 283 | 1.0 | 5.0 | 0.00 | 0.00 | 0.00 | 80 | 1016.3 |